Time;durP1;ratioP1;P1;durP2;ratioP2;P2;SDS_P1;SDS_P2;PMS_P1;PMS_P2;Temp;Humidity;BMP_temperature;BMP_pressure;BME280_temperature;BME280_humidity;BME280_pressure;Samples;Min_cycle;Max_cycle;Signal;HPM_P1;HPM_P2
2022/11/27 00:01:28;;;;;;;19.73;8.70;;;9.00;87.00;;;11.56;63.04;102610.25;5055239;28;20275;-58
2022/11/27 00:03:56;;;;;;;17.37;7.73;;;9.00;87.00;;;11.55;63.22;102610.41;5053901;28;20222;-56
2022/11/27 00:06:28;;;;;;;18.70;8.10;;;9.00;86.80;;;11.54;62.44;102617.47;5064159;28;20189;-56
2022/11/27 00:08:56;;;;;;;11.47;6.63;;;9.00;86.80;;;11.52;62.92;102602.75;5062982;28;20189;-56
2022/11/27 00:11:26;;;;;;;15.40;7.33;;;9.00;86.70;;;11.53;62.69;102612.31;5053141;28;20216;-55
2022/11/27 00:13:54;;;;;;;13.10;6.90;;;9.00;86.60;;;11.53;62.80;102602.59;5056463;28;20200;-57
2022/11/27 00:16:23;;;;;;;18.13;7.20;;;9.00;86.60;;;11.46;62.85;102598.00;5094454;28;20692;-58
2022/11/27 00:18:50;;;;;;;12.03;6.60;;;9.00;86.70;;;11.45;62.90;102601.63;5091639;28;20539;-56
2022/11/27 00:21:21;;;;;;;15.70;7.00;;;9.00;86.30;;;11.43;62.52;102603.56;5075461;28;20212;-55
2022/11/27 00:23:51;;;;;;;13.20;6.70;;;9.00;86.20;;;11.42;62.72;102607.16;5077112;28;20212;-55
2022/11/27 00:26:19;;;;;;;16.07;7.20;;;9.00;86.10;;;11.42;62.34;102599.25;5078583;28;20212;-54
2022/11/27 00:28:47;;;;;;;11.50;6.97;;;9.00;86.10;;;11.45;62.68;102606.91;5071443;28;20195;-55
2022/11/27 00:31:17;;;;;;;10.47;6.30;;;9.00;86.10;;;11.47;62.60;102605.81;5063590;28;20299;-55
2022/11/27 00:33:45;;;;;;;9.10;5.87;;;9.00;86.10;;;11.50;62.36;102604.69;5057534;28;20650;-54
2022/11/27 00:36:13;;;;;;;13.43;5.90;;;9.00;86.00;;;11.46;62.51;102603.28;5057589;28;20229;-56
2022/11/27 00:38:41;;;;;;;10.53;6.50;;;9.00;85.80;;;11.44;62.62;102599.94;5065378;28;20201;-55
2022/11/27 00:41:16;;;;;;;16.43;7.67;;;9.00;85.70;;;11.44;62.37;102599.94;5064370;28;20217;-57
2022/11/27 00:43:43;;;;;;;12.80;6.73;;;9.00;85.60;;;11.46;62.07;102592.72;5078504;28;20203;-56
2022/11/27 00:46:12;;;;;;;13.90;6.90;;;9.00;85.60;;;11.45;62.53;102599.00;5071773;28;20194;-56
2022/11/27 00:48:40;;;;;;;15.20;7.43;;;9.00;85.50;;;11.46;61.95;102600.63;5074051;28;20722;-56
2022/11/27 00:51:10;;;;;;;11.90;6.07;;;9.00;85.50;;;11.45;62.24;102591.09;5077033;28;20633;-55
2022/11/27 00:53:37;;;;;;;13.10;6.73;;;9.00;85.40;;;11.46;62.02;102590.09;5077285;28;20193;-57
2022/11/27 00:56:05;;;;;;;14.67;7.27;;;9.00;85.40;;;11.44;62.10;102589.41;5077643;28;20212;-55
2022/11/27 00:58:34;;;;;;;12.00;6.33;;;9.00;85.20;;;11.47;61.98;102589.13;5077691;28;20201;-55
2022/11/27 01:01:04;;;;;;;11.73;6.73;;;9.00;85.20;;;11.51;61.66;102590.53;5078166;28;20189;-54
2022/11/27 01:03:33;;;;;;;11.10;5.67;;;9.00;85.10;;;11.46;61.70;102587.47;5059240;28;20298;-53
2022/11/27 01:06:03;;;;;;;11.50;6.43;;;9.00;85.10;;;11.48;62.20;102585.53;5076008;28;20593;-56
2022/11/27 01:08:30;;;;;;;13.70;6.30;;;9.00;85.00;;;11.45;61.74;102580.53;5076885;28;20189;-53
2022/11/27 01:10:58;;;;;;;11.23;6.20;;;9.00;85.00;;;11.45;61.79;102580.53;5075137;28;20551;-54
2022/11/27 01:13:28;;;;;;;12.80;6.20;;;9.00;84.90;;;11.48;61.95;102585.53;5075870;28;20189;-56
2022/11/27 01:16:01;;;;;;;10.93;6.00;;;9.00;84.90;;;11.50;61.93;102584.41;5093769;28;20246;-57
2022/11/27 01:18:29;;;;;;;14.63;5.93;;;9.00;84.80;;;11.42;61.80;102586.91;5084958;28;20176;-57
2022/11/27 01:20:56;;;;;;;12.30;6.10;;;9.00;84.80;;;11.38;61.75;102574.13;5056210;28;20203;-56
2022/11/27 01:23:24;;;;;;;14.37;5.90;;;9.00;84.80;;;11.42;61.90;102575.53;5056074;28;20311;-56
2022/11/27 01:25:52;;;;;;;11.57;5.80;;;9.00;84.80;;;11.43;61.99;102583.28;5056222;28;20182;-55
2022/11/27 01:28:21;;;;;;;15.37;6.60;;;9.00;84.70;;;11.44;61.54;102576.22;5056157;28;20239;-54
2022/11/27 01:30:49;;;;;;;10.37;6.10;;;9.00;84.60;;;11.42;61.88;102571.09;5055824;28;20194;-56
2022/11/27 01:33:18;;;;;;;13.13;6.00;;;9.00;84.60;;;11.45;61.57;102573.47;5055903;28;20284;-57
2022/11/27 01:35:55;;;;;;;11.03;5.63;;;9.00;84.60;;;11.49;61.25;102568.75;5065369;28;20549;-55
2022/11/27 01:38:23;;;;;;;17.33;6.97;;;9.10;84.60;;;11.47;61.58;102568.03;5070579;28;20260;-57
2022/11/27 01:40:56;;;;;;;9.80;5.93;;;9.00;84.30;;;11.50;60.95;102559.88;5068772;28;20216;-58
2022/11/27 01:43:39;;;;;;;14.93;7.00;;;9.00;84.30;;;11.45;61.23;102570.00;5086875;28;20209;-57
2022/11/27 01:46:24;;;;;;;11.63;6.20;;;9.00;84.10;;;11.37;61.42;102567.19;5104996;28;20200;-56
2022/11/27 01:48:58;;;;;;;20.23;6.43;;;9.00;84.00;;;11.37;61.61;102562.75;5074227;28;20212;-55
2022/11/27 01:51:26;;;;;;;10.30;6.07;;;9.00;83.90;;;11.31;61.81;102558.03;5074351;28;20611;-56
2022/11/27 01:53:53;;;;;;;14.73;6.83;;;9.00;83.90;;;11.26;61.53;102549.69;5076408;28;20677;-57
2022/11/27 01:56:23;;;;;;;11.73;6.43;;;9.00;84.70;;;11.32;61.47;102549.13;5075681;28;20352;-57
2022/11/27 01:58:51;;;;;;;11.47;6.57;;;9.00;83.90;;;11.23;61.21;102549.09;5075475;28;20185;-57
2022/11/27 02:01:18;;;;;;;11.73;6.90;;;8.90;83.70;;;11.25;61.71;102547.16;5076339;28;20220;-57
2022/11/27 02:03:45;;;;;;;13.67;7.63;;;8.90;83.60;;;11.24;61.34;102545.50;5075514;28;20186;-55
2022/11/27 02:06:14;;;;;;;11.90;6.30;;;8.90;83.50;;;11.21;61.22;102540.50;5076349;28;20195;-57
2022/11/27 02:08:42;;;;;;;12.13;6.40;;;8.90;83.50;;;11.13;61.93;102537.69;5073967;28;20193;-55
2022/11/27 02:11:16;;;;;;;14.77;7.03;;;8.90;83.50;;;11.13;61.83;102540.31;5075429;28;20215;-55
2022/11/27 02:13:50;;;;;;;14.33;7.57;;;8.90;83.70;;;11.19;61.12;102542.44;5077403;28;20352;-57
2022/11/27 02:16:28;;;;;;;14.03;7.67;;;8.90;83.70;;;11.21;61.38;102532.59;5059225;28;20218;-55
2022/11/27 02:19:06;;;;;;;12.60;6.93;;;8.80;83.60;;;11.17;61.00;102528.56;5056386;28;20534;-55
2022/11/27 02:21:43;;;;;;;13.77;6.93;;;8.80;83.60;;;11.21;61.17;102529.97;5056902;28;20709;-53
2022/11/27 02:24:45;;;;;;;14.77;7.90;;;8.80;83.80;;;11.20;61.34;102517.72;5063618;28;20189;-56
2022/11/27 02:27:46;;;;;;;21.80;8.53;;;8.80;83.70;;;11.12;61.21;102514.94;5076416;28;20189;-56
2022/11/27 02:30:14;;;;;;;14.83;7.60;;;8.80;83.70;;;11.10;61.39;102519.53;5075058;28;20660;-56
2022/11/27 02:32:55;;;;;;;12.37;7.50;;;8.70;83.60;;;11.03;61.26;102521.03;5057304;28;20237;-54
2022/11/27 02:35:30;;;;;;;18.50;8.93;;;8.70;83.70;;;10.98;61.68;102517.97;5056750;28;20194;-55
2022/11/27 02:38:05;;;;;;;14.83;8.03;;;8.60;83.70;;;10.93;61.10;102514.88;5067095;28;20291;-57
2022/11/27 02:40:40;;;;;;;14.93;8.77;;;8.60;83.80;;;10.93;61.37;102512.25;5072838;28;20201;-55
2022/11/27 02:43:11;;;;;;;17.30;9.10;;;8.60;83.90;;;10.94;61.30;102511.25;5081766;28;20224;-54
2022/11/27 02:45:44;;;;;;;14.73;8.07;;;8.60;84.00;;;10.89;61.79;102515.16;5095415;28;20227;-55
2022/11/27 02:48:14;;;;;;;19.47;9.20;;;8.50;83.80;;;10.94;61.31;102516.53;5082557;28;20637;-55
2022/11/27 02:50:45;;;;;;;15.67;8.37;;;8.50;84.60;;;10.96;60.96;102514.63;5074063;28;20197;-55
2022/11/27 02:53:19;;;;;;;16.00;10.20;;;8.50;84.00;;;10.96;60.87;102509.38;5073295;28;20209;-56
2022/11/27 02:55:50;;;;;;;15.17;9.67;;;8.40;83.90;;;10.93;61.54;102507.81;5074385;28;20664;-57
2022/11/27 02:58:23;;;;;;;13.13;8.63;;;8.40;83.90;;;10.94;60.95;102506.00;5080116;28;20197;-58
2022/11/27 03:00:53;;;;;;;20.23;10.17;;;8.40;83.90;;;10.96;60.94;102514.63;5074504;28;20204;-54
2022/11/27 03:03:25;;;;;;;15.10;9.27;;;8.40;84.00;;;10.97;60.61;102519.75;5074057;28;20193;-58
2022/11/27 03:06:01;;;;;;;14.30;9.03;;;8.40;84.00;;;10.92;60.88;102519.31;5064445;28;20185;-57
2022/11/27 03:08:40;;;;;;;16.13;10.03;;;8.40;83.80;;;10.80;61.18;102515.94;5075117;28;20211;-58
2022/11/27 03:11:10;;;;;;;13.47;9.17;;;8.30;83.60;;;10.65;61.12;102511.97;5071009;28;20189;-56
2022/11/27 03:13:41;;;;;;;13.17;9.77;;;8.20;83.70;;;10.51;61.48;102514.13;5073941;28;20246;-57
2022/11/27 03:16:19;;;;;;;13.13;9.97;;;8.10;83.90;;;10.40;61.83;102512.41;5092640;28;20219;-57
2022/11/27 03:18:57;;;;;;;15.60;10.73;;;8.10;84.20;;;10.35;61.90;102508.47;5091749;28;20702;-57
2022/11/27 03:21:33;;;;;;;17.60;11.07;;;8.00;84.30;;;10.24;62.74;102509.41;5059627;28;20217;-54
2022/11/27 03:24:00;;;;;;;16.57;11.30;;;8.00;84.60;;;10.19;62.88;102511.59;5053803;28;20622;-56
2022/11/27 03:26:27;;;;;;;16.63;11.60;;;7.90;84.70;;;10.13;62.99;102512.91;5053518;28;20248;-58
2022/11/27 03:28:58;;;;;;;16.73;11.27;;;7.80;84.80;;;10.04;62.65;102518.06;5073396;28;20266;-56
2022/11/27 03:31:27;;;;;;;15.60;11.10;;;7.80;85.10;;;9.97;62.93;102511.66;5072917;28;20217;-58
2022/11/27 03:33:55;;;;;;;15.47;11.47;;;7.70;85.20;;;9.98;63.54;102511.50;5073567;28;20197;-55
2022/11/27 03:36:23;;;;;;;20.87;12.53;;;7.70;85.30;;;9.99;63.50;102517.63;5072876;28;20235;-55
2022/11/27 03:38:54;;;;;;;17.73;11.97;;;7.60;85.30;;;9.91;63.36;102520.06;5073842;28;20691;-56
2022/11/27 03:41:37;;;;;;;16.43;12.03;;;7.60;85.60;;;9.90;63.71;102510.50;5056263;28;20221;-54
2022/11/27 03:44:21;;;;;;;17.07;11.23;;;7.60;85.60;;;9.92;62.92;102512.03;5080897;28;20222;-57
2022/11/27 03:47:09;;;;;;;15.83;11.30;;;7.60;85.60;;;9.98;62.98;102500.19;5092154;28;20241;-55
2022/11/27 03:49:55;;;;;;;19.30;11.37;;;7.60;85.60;;;10.05;62.87;102485.56;5073517;28;20194;-56
2022/11/27 03:52:43;;;;;;;13.93;10.07;;;7.60;85.90;;;10.15;62.98;102491.72;5072632;28;20217;-56
2022/11/27 03:55:22;;;;;;;18.10;11.47;;;7.60;86.00;;;10.20;62.27;102490.41;5066903;28;20212;-55
2022/11/27 03:57:59;;;;;;;14.63;11.57;;;7.60;86.00;;;10.21;62.33;102491.22;5057133;28;20213;-55
2022/11/27 04:00:31;;;;;;;16.97;11.60;;;7.60;85.50;;;10.19;62.32;102482.63;5057594;28;20247;-57
2022/11/27 04:03:02;;;;;;;15.23;11.67;;;7.60;85.20;;;10.21;62.40;102480.72;5057399;28;20209;-55
2022/11/27 04:05:29;;;;;;;21.43;13.03;;;7.60;85.30;;;10.23;62.19;102478.78;5072441;28;20544;-58
2022/11/27 04:07:56;;;;;;;17.10;12.23;;;7.60;85.30;;;10.24;61.62;102480.47;5079109;28;20335;-58
2022/11/27 04:10:23;;;;;;;15.53;10.57;;;7.60;85.20;;;10.24;61.84;102476.97;5076623;28;20228;-58
2022/11/27 04:12:50;;;;;;;19.03;11.43;;;7.60;85.20;;;10.27;61.91;102485.44;5076217;28;20205;-55
2022/11/27 04:15:17;;;;;;;14.53;11.30;;;7.60;85.40;;;10.30;62.04;102481.72;5088891;28;20641;-55
2022/11/27 04:17:45;;;;;;;17.03;11.13;;;7.60;85.30;;;10.28;61.59;102483.66;5095724;28;20220;-57
2022/11/27 04:20:14;;;;;;;15.70;11.87;;;7.60;85.00;;;10.26;60.87;102488.22;5062665;28;20190;-57
2022/11/27 04:22:41;;;;;;;15.27;11.70;;;7.60;84.70;;;10.18;61.57;102476.53;5056518;28;20264;-55
2022/11/27 04:25:08;;;;;;;17.03;11.93;;;7.60;84.40;;;10.15;61.08;102470.69;5075502;28;20204;-56
2022/11/27 04:27:35;;;;;;;15.20;11.40;;;7.50;84.40;;;10.12;61.50;102468.34;5076687;28;20244;-55
2022/11/27 04:30:04;;;;;;;18.00;11.30;;;7.50;84.30;;;10.08;61.36;102458.97;5077303;28;20220;-58
2022/11/27 04:32:31;;;;;;;18.13;12.10;;;7.50;84.40;;;10.03;61.49;102458.56;5067486;28;20221;-54
2022/11/27 04:34:58;;;;;;;14.70;11.30;;;7.50;84.30;;;10.00;61.60;102461.44;5057130;28;20193;-56
2022/11/27 04:37:26;;;;;;;16.37;11.03;;;7.40;84.40;;;9.93;61.72;102449.75;5056706;28;20263;-56
2022/11/27 04:39:53;;;;;;;17.37;12.20;;;7.40;84.40;;;9.89;61.85;102454.41;5056470;28;20194;-56
2022/11/27 04:42:20;;;;;;;15.70;11.53;;;7.30;84.40;;;9.86;61.68;102449.44;5056423;28;20259;-57
2022/11/27 04:44:47;;;;;;;19.43;12.03;;;7.30;84.50;;;9.86;61.75;102448.59;5095414;28;20563;-54
2022/11/27 04:47:14;;;;;;;17.47;12.53;;;7.30;84.90;;;9.84;61.89;102434.75;5079277;28;20242;-57
2022/11/27 04:49:42;;;;;;;16.87;11.60;;;7.30;84.80;;;9.83;62.14;102426.03;5076613;28;20197;-55
2022/11/27 04:52:12;;;;;;;17.23;11.63;;;7.30;85.00;;;9.77;62.21;102423.06;5070183;28;20263;-56
2022/11/27 04:54:40;;;;;;;16.17;11.97;;;7.20;84.80;;;9.77;61.93;102438.84;5056348;28;20194;-54
2022/11/27 04:57:08;;;;;;;19.20;12.57;;;7.30;85.00;;;9.77;61.94;102430.97;5056218;28;20214;-55
2022/11/27 04:59:35;;;;;;;19.67;12.40;;;7.20;84.90;;;9.68;62.27;102434.31;5059360;28;20608;-57
2022/11/27 05:02:02;;;;;;;16.77;12.47;;;7.20;84.90;;;9.69;62.07;102433.38;5075925;28;20662;-57
2022/11/27 05:04:29;;;;;;;15.87;12.00;;;7.20;85.00;;;9.69;62.26;102425.50;5076998;28;20193;-55
2022/11/27 05:06:56;;;;;;;17.10;11.83;;;7.20;85.00;;;9.69;62.48;102425.50;5076329;28;20190;-57
2022/11/27 05:09:24;;;;;;;18.53;12.30;;;7.10;84.90;;;9.66;61.74;102428.38;5076948;28;20185;-55
2022/11/27 05:11:52;;;;;;;17.10;12.00;;;7.10;84.80;;;9.62;62.20;102422.53;5075120;28;20270;-56
2022/11/27 05:14:21;;;;;;;15.37;11.33;;;7.10;84.80;;;9.61;62.25;102417.41;5079152;28;20567;-57
2022/11/27 05:16:51;;;;;;;15.80;12.23;;;7.10;84.90;;;9.56;62.00;102412.53;5096091;28;20266;-54
2022/11/27 05:19:20;;;;;;;15.10;11.17;;;7.00;84.80;;;9.49;62.06;102412.19;5088939;28;20185;-57
2022/11/27 05:21:49;;;;;;;14.60;10.63;;;7.00;84.80;;;9.46;62.45;102391.41;5074873;28;20209;-54
2022/11/27 05:24:18;;;;;;;20.90;11.23;;;7.00;84.70;;;9.44;61.89;102380.22;5075831;28;20195;-57
2022/11/27 05:26:46;;;;;;;17.70;11.30;;;6.90;84.80;;;9.45;62.30;102381.88;5075946;28;20194;-57
2022/11/27 05:29:15;;;;;;;14.67;11.30;;;6.90;85.00;;;9.49;61.97;102383.28;5075201;28;20231;-55
2022/11/27 05:31:42;;;;;;;16.40;11.40;;;6.90;85.20;;;9.46;61.71;102386.16;5075073;28;20217;-55
2022/11/27 05:34:10;;;;;;;17.40;10.07;;;6.90;84.90;;;9.48;62.25;102386.06;5075918;28;20188;-57
2022/11/27 05:36:38;;;;;;;16.43;11.53;;;6.90;85.00;;;9.41;61.89;102390.97;5075420;28;20189;-54
2022/11/27 05:39:07;;;;;;;14.50;10.80;;;6.80;84.50;;;9.35;61.64;102398.53;5075657;28;20192;-56
2022/11/27 05:41:36;;;;;;;13.67;9.43;;;6.80;84.30;;;9.28;62.11;102395.56;5067394;28;20214;-57
2022/11/27 05:44:04;;;;;;;15.97;10.97;;;6.80;84.20;;;9.25;61.97;102390.56;5082572;28;20202;-54
2022/11/27 05:46:33;;;;;;;14.23;10.60;;;6.80;84.20;;;9.22;62.05;102390.00;5086980;28;20185;-56
2022/11/27 05:49:00;;;;;;;13.53;9.23;;;6.70;84.30;;;9.24;61.69;102388.06;5072866;28;20190;-58
2022/11/27 05:51:27;;;;;;;16.27;11.40;;;6.70;84.40;;;9.24;61.70;102388.91;5054973;28;20213;-55
2022/11/27 05:53:54;;;;;;;13.17;10.10;;;6.70;84.60;;;9.23;61.66;102387.22;5055108;28;20196;-54
2022/11/27 05:56:21;;;;;;;14.47;10.73;;;6.70;84.70;;;9.25;62.20;102380.03;5070705;28;20222;-56
2022/11/27 05:58:50;;;;;;;13.83;10.37;;;6.60;85.10;;;9.24;61.73;102381.03;5075044;28;20266;-56
2022/11/27 06:01:18;;;;;;;13.73;10.20;;;6.70;84.70;;;9.24;61.52;102370.53;5074449;28;20231;-55
2022/11/27 06:03:46;;;;;;;15.00;10.70;;;6.70;84.60;;;9.13;61.74;102370.53;5074218;28;20197;-57
2022/11/27 06:06:18;;;;;;;13.07;9.47;;;6.60;84.20;;;9.13;61.76;102360.03;5076178;28;20193;-59
2022/11/27 06:08:46;;;;;;;14.73;10.53;;;6.60;84.50;;;9.11;61.86;102351.44;5072260;28;20633;-55
2022/11/27 06:11:16;;;;;;;15.17;11.03;;;6.60;84.50;;;9.04;62.00;102355.53;5054102;28;20213;-55
2022/11/27 06:13:44;;;;;;;14.40;10.20;;;6.60;84.30;;;9.02;61.91;102367.97;5054856;28;20195;-55
2022/11/27 06:16:14;;;;;;;15.93;10.20;;;6.50;84.20;;;8.98;61.89;102371.81;5085345;28;20201;-57
2022/11/27 06:18:42;;;;;;;13.37;10.27;;;6.50;84.30;;;8.98;61.93;102371.81;5074171;28;20252;-57
2022/11/27 06:21:13;;;;;;;15.50;10.60;;;6.50;84.30;;;8.93;61.79;102366.09;5074616;28;20243;-55
2022/11/27 06:23:42;;;;;;;16.87;11.83;;;6.50;84.20;;;8.89;61.95;102356.75;5074341;28;20181;-54
2022/11/27 06:26:15;;;;;;;17.47;11.30;;;6.40;84.20;;;8.87;62.10;102352.63;5074866;28;20185;-57
2022/11/27 06:28:42;;;;;;;15.23;11.03;;;6.40;84.30;;;8.80;62.34;102357.50;5074163;28;20196;-55
2022/11/27 06:31:12;;;;;;;16.23;11.07;;;6.40;84.30;;;8.78;62.82;102355.00;5073840;28;20286;-54
2022/11/27 06:33:45;;;;;;;14.63;10.53;;;6.40;84.50;;;8.79;62.16;102351.41;5074548;28;20218;-57
2022/11/27 06:36:13;;;;;;;14.80;10.93;;;6.30;84.50;;;8.78;62.45;102351.56;5074031;28;20274;-57
2022/11/27 06:38:40;;;;;;;14.83;11.20;;;6.30;84.60;;;8.81;62.23;102346.06;5074443;28;20724;-56
2022/11/27 06:41:10;;;;;;;15.93;10.73;;;6.30;84.70;;;8.84;62.41;102340.56;5073012;28;20193;-55
2022/11/27 06:43:38;;;;;;;12.67;10.10;;;6.30;84.90;;;8.84;62.39;102332.69;5074214;28;20199;-57
2022/11/27 06:46:10;;;;;;;12.13;9.90;;;6.30;84.80;;;8.84;61.94;102332.69;5074490;28;20201;-57
2022/11/27 06:48:37;;;;;;;16.00;10.50;;;6.30;84.70;;;8.80;62.25;102328.63;5074813;28;20207;-55
2022/11/27 06:51:06;;;;;;;13.23;10.03;;;6.30;84.70;;;8.83;62.39;102325.78;5073228;28;20735;-53
2022/11/27 06:53:37;;;;;;;13.77;9.93;;;6.30;84.70;;;8.86;62.33;102320.28;5074185;28;20201;-57
2022/11/27 06:56:07;;;;;;;15.37;11.20;;;6.30;84.90;;;8.87;61.97;102315.88;5073396;28;20658;-57
2022/11/27 06:58:35;;;;;;;13.93;10.50;;;6.30;84.60;;;8.84;62.29;102317.75;5074183;28;20245;-57
2022/11/27 07:01:07;;;;;;;12.77;9.27;;;6.40;84.50;;;8.79;62.17;102313.84;5073576;28;20681;-56
2022/11/27 07:03:34;;;;;;;13.40;9.83;;;6.30;84.30;;;8.82;61.93;102324.09;5074532;28;20275;-58
2022/11/27 07:06:04;;;;;;;14.50;10.63;;;6.30;84.20;;;8.82;61.93;102329.34;5073641;28;20193;-56
2022/11/27 07:08:32;;;;;;;14.10;10.67;;;6.30;84.20;;;8.74;61.85;102319.47;5075149;28;20199;-57
2022/11/27 07:11:03;;;;;;;15.73;11.03;;;6.30;84.10;;;8.76;62.22;102335.09;5072705;28;20197;-55
2022/11/27 07:13:31;;;;;;;14.73;11.83;;;6.30;84.20;;;8.66;62.24;102328.91;5073994;28;20213;-55
2022/11/27 07:16:00;;;;;;;14.40;10.73;;;6.20;83.90;;;8.59;62.07;102332.97;5073659;28;20195;-57
2022/11/27 07:18:28;;;;;;;15.23;10.43;;;6.20;83.90;;;8.59;62.05;102328.56;5073403;28;20244;-57
2022/11/27 07:20:55;;;;;;;14.77;10.87;;;6.20;83.90;;;8.56;62.33;102328.81;5053310;28;20259;-62
2022/11/27 07:23:23;;;;;;;17.03;11.07;;;6.20;83.90;;;8.59;62.40;102333.81;5054201;28;20277;-57
2022/11/27 07:25:50;;;;;;;13.93;10.70;;;6.20;84.10;;;8.64;62.32;102325.56;5055871;28;20236;-56
2022/11/27 07:28:18;;;;;;;13.70;9.93;;;6.10;84.20;;;8.71;61.93;102321.50;5058268;28;20186;-55
2022/11/27 07:30:53;;;;;;;12.40;9.50;;;6.20;84.50;;;8.79;62.04;102321.72;5057985;28;20203;-57
2022/11/27 07:33:20;;;;;;;14.43;10.67;;;6.20;84.80;;;8.85;61.77;102324.69;5074509;28;20204;-57
2022/11/27 07:35:48;;;;;;;14.17;10.27;;;6.20;84.60;;;8.87;61.17;102319.31;5077475;28;20662;-56
2022/11/27 07:38:15;;;;;;;15.60;9.70;;;6.20;84.20;;;8.87;61.28;102316.69;5081149;28;20303;-58
2022/11/27 07:40:42;;;;;;;18.07;11.67;;;6.30;84.00;;;8.91;61.37;102326.00;5098360;28;20264;-57
2022/11/27 07:43:09;;;;;;;12.20;9.10;;;6.20;84.10;;;8.96;61.55;102326.47;5092989;28;20217;-53
2022/11/27 07:45:37;;;;;;;13.50;10.33;;;6.30;84.30;;;9.04;61.73;102329.28;5077983;28;20193;-56
2022/11/27 07:48:05;;;;;;;12.30;9.67;;;6.30;84.70;;;9.10;61.39;102325.31;5079328;28;20639;-57
2022/11/27 07:50:32;;;;;;;13.57;10.60;;;6.30;84.40;;;9.15;60.85;102325.78;5076901;28;20521;-56
2022/11/27 07:52:59;;;;;;;15.87;10.07;;;6.40;84.30;;;9.19;61.10;102317.53;5072929;28;20631;-54
2022/11/27 07:55:26;;;;;;;15.03;10.13;;;6.40;84.60;;;9.24;60.96;102320.59;5073527;28;20189;-54
2022/11/27 07:57:53;;;;;;;15.40;9.50;;;6.50;84.30;;;9.28;60.80;102331.69;5073848;28;20269;-56
2022/11/27 08:00:20;;;;;;;15.37;10.60;;;6.50;83.90;;;9.29;60.37;102320.22;5061044;28;20562;-55
2022/11/27 08:02:49;;;;;;;14.20;10.30;;;6.50;83.70;;;9.29;60.53;102318.44;5052766;28;20209;-54
2022/11/27 08:05:16;;;;;;;12.47;9.30;;;6.50;83.40;;;9.26;60.66;102315.22;5054140;28;20201;-54
2022/11/27 08:07:43;;;;;;;12.87;9.80;;;6.60;83.20;;;9.26;60.05;102312.59;5068260;28;20192;-56
2022/11/27 08:10:10;;;;;;;13.03;9.77;;;6.60;83.10;;;9.27;60.53;102301.94;5074039;28;20603;-57
2022/11/27 08:12:37;;;;;;;18.37;10.40;;;6.60;83.10;;;9.30;59.97;102298.22;5072294;28;20213;-54
2022/11/27 08:15:06;;;;;;;14.67;10.60;;;6.60;83.10;;;9.36;60.48;102297.72;5082585;28;20193;-60
2022/11/27 08:17:33;;;;;;;14.63;11.27;;;6.60;83.30;;;9.41;60.01;102303.44;5093416;28;20216;-55
2022/11/27 08:20:03;;;;;;;15.27;11.23;;;6.60;82.60;;;9.36;60.32;102298.56;5080254;28;20212;-58
2022/11/27 08:22:30;;;;;;;14.33;9.70;;;6.70;82.50;;;9.40;59.90;102294.72;5055765;28;20269;-57
2022/11/27 08:24:57;;;;;;;16.23;11.47;;;6.70;82.90;;;9.45;59.83;102295.16;5053317;28;20239;-56
2022/11/27 08:27:24;;;;;;;14.53;11.10;;;6.70;82.50;;;9.50;59.43;102281.63;5059992;28;20189;-57
2022/11/27 08:29:51;;;;;;;14.83;11.03;;;6.70;82.50;;;9.50;59.38;102285.09;5073242;28;20189;-55
2022/11/27 08:32:18;;;;;;;14.27;10.07;;;6.80;82.00;;;9.52;59.29;102287.59;5071964;28;20209;-56
2022/11/27 08:34:44;;;;;;;18.77;12.27;;;6.80;82.10;;;9.50;59.08;102279.84;5072159;28;20335;-56
2022/11/27 08:37:13;;;;;;;16.07;11.50;;;6.80;81.80;;;9.46;59.63;102273.16;5052137;28;20194;-57
2022/11/27 08:39:40;;;;;;;14.70;10.07;;;6.80;81.60;;;9.35;59.65;102260.09;5052941;28;20744;-55
2022/11/27 08:42:07;;;;;;;13.03;10.63;;;6.80;81.30;;;9.34;60.00;102263.69;5067722;28;20224;-56
2022/11/27 08:44:34;;;;;;;14.40;11.60;;;6.80;81.50;;;9.35;59.34;102265.34;5094396;28;20196;-57
2022/11/27 08:47:01;;;;;;;12.57;10.57;;;6.80;81.50;;;9.35;59.41;102269.78;5093122;28;20270;-56
2022/11/27 08:49:28;;;;;;;15.37;10.40;;;6.80;81.50;;;9.26;59.45;102265.31;5075785;28;20247;-55
2022/11/27 08:51:55;;;;;;;15.83;10.40;;;6.70;81.00;;;9.17;59.87;102272.16;5075927;28;20272;-57
2022/11/27 08:54:23;;;;;;;14.50;10.40;;;6.70;81.00;;;9.20;59.63;102266.63;5074301;28;20250;-56
2022/11/27 08:56:51;;;;;;;14.93;11.33;;;6.70;81.40;;;9.25;59.60;102269.72;5056242;28;20382;-55
2022/11/27 08:59:19;;;;;;;14.97;10.57;;;6.70;81.60;;;9.29;59.63;102260.63;5056091;28;20673;-56
2022/11/27 09:01:46;;;;;;;13.30;10.00;;;6.70;81.60;;;9.30;59.53;102250.94;5055607;28;20246;-55
2022/11/27 09:04:13;;;;;;;12.30;10.13;;;6.70;81.60;;;9.32;60.02;102249.84;5058206;28;20198;-55
2022/11/27 09:06:40;;;;;;;12.40;10.17;;;6.70;81.70;;;9.31;59.98;102242.94;5076491;28;20507;-56
2022/11/27 09:09:07;;;;;;;16.30;11.33;;;6.70;81.70;;;9.36;59.92;102235.50;5076234;28;20220;-56
2022/11/27 09:11:36;;;;;;;15.43;9.60;;;6.80;82.00;;;9.47;59.74;102227.53;5076671;28;20246;-54
2022/11/27 09:14:04;;;;;;;14.20;9.97;;;6.80;82.20;;;9.55;59.26;102222.44;5078942;28;20195;-56
2022/11/27 09:16:32;;;;;;;15.40;10.20;;;6.90;82.00;;;9.57;59.09;102222.34;5095910;28;20216;-56
2022/11/27 09:18:59;;;;;;;12.10;10.33;;;6.90;81.60;;;9.57;59.50;102226.75;5074327;28;20325;-56
2022/11/27 09:21:29;;;;;;;14.60;10.43;;;6.90;81.40;;;9.59;59.34;102227.44;5065952;28;20217;-57
2022/11/27 09:23:58;;;;;;;12.43;10.47;;;7.00;81.40;;;9.57;59.10;102221.50;5056114;28;20194;-54
2022/11/27 09:26:27;;;;;;;14.73;10.67;;;7.00;81.10;;;9.61;59.49;102218.47;5056948;28;20204;-56
2022/11/27 09:28:58;;;;;;;13.30;10.67;;;7.10;81.20;;;9.68;58.90;102219.59;5055608;28;20186;-56
2022/11/27 09:31:25;;;;;;;9.83;8.60;;;7.10;81.10;;;9.75;58.94;102206.75;5063948;28;20214;-55
2022/11/27 09:33:53;;;;;;;12.87;10.20;;;7.10;81.20;;;9.83;58.66;102207.78;5075545;28;20295;-56
2022/11/27 09:36:24;;;;;;;13.27;10.10;;;7.20;81.90;;;9.84;58.86;102219.94;5059530;28;20194;-55
2022/11/27 09:38:52;;;;;;;13.53;9.83;;;7.20;81.00;;;9.88;58.50;102226.63;5055838;28;20693;-56
2022/11/27 09:41:43;;;;;;;16.70;10.13;;;7.20;80.90;;;9.85;58.95;102226.03;5063675;28;20213;-56
2022/11/27 09:44:24;;;;;;;12.10;9.23;;;7.20;80.80;;;9.85;58.72;102231.28;5089307;28;20189;-58
2022/11/27 09:46:55;;;;;;;13.27;9.67;;;7.30;80.80;;;9.93;58.72;102228.84;5093589;28;20238;-57
2022/11/27 09:49:27;;;;;;;14.83;9.57;;;7.30;80.90;;;9.91;58.80;102230.78;5075451;28;20177;-55
2022/11/27 09:52:02;;;;;;;13.33;9.90;;;7.30;80.70;;;9.97;58.87;102232.84;5074162;28;20362;-57
2022/11/27 09:54:37;;;;;;;18.93;9.97;;;7.30;80.70;;;9.98;58.36;102237.97;5075214;28;20675;-56
2022/11/27 09:57:06;;;;;;;12.80;9.70;;;7.30;80.50;;;9.95;58.41;102226.91;5064359;28;20209;-56
2022/11/27 09:59:44;;;;;;;15.13;10.50;;;7.30;80.30;;;9.98;57.98;102216.13;5053748;28;20213;-56
2022/11/27 10:02:18;;;;;;;12.50;10.37;;;7.30;80.40;;;10.04;58.15;102216.41;5069423;28;20221;-57
2022/11/27 10:04:45;;;;;;;13.83;9.83;;;7.40;80.60;;;10.15;58.12;102212.84;5075022;28;20185;-55
2022/11/27 10:07:45;;;;;;;13.97;10.87;;;7.40;80.80;;;10.20;58.21;102218.53;5075128;28;20235;-59
2022/11/27 10:10:35;;;;;;;17.97;10.40;;;7.50;80.70;;;10.28;58.44;102223.97;5075588;28;20189;-57
2022/11/27 10:13:17;;;;;;;13.47;9.80;;;7.50;80.70;;;10.30;57.71;102221.19;5075895;28;20262;-54
2022/11/27 10:15:54;;;;;;;15.37;10.87;;;7.60;80.40;;;10.35;57.97;102213.72;5091654;28;20253;-56
2022/11/27 10:18:34;;;;;;;16.07;9.63;;;7.60;80.40;;;10.40;57.88;102207.09;5095087;28;20212;-57
2022/11/27 10:21:11;;;;;;;17.40;10.33;;;7.60;80.40;;;10.48;58.04;102212.53;5053643;28;20601;-54
2022/11/27 10:23:52;;;;;;;16.20;9.70;;;7.70;80.50;;;10.53;57.85;102205.00;5056135;28;20677;-57
2022/11/27 10:26:28;;;;;;;12.70;10.37;;;7.70;80.30;;;10.58;57.85;102208.06;5047071;28;20205;-56